Time,TemperatureF,DewpointF,PressureIn,WindDirection,WindDirectionDegrees,WindSpeedMPH,WindSpeedGustMPH,Humidity,HourlyPrecipIn,Conditions,Clouds,dailyrainin,SolarRadiationWatts/m^2,SoftwareType,DateUTC
2013-06-16 00:04:00,69.8,66.1,29.83,West,260,10.0,17.0,88,0.00,RA,RA,0.00,0.0,WeatherDisplay:10.37,2013-06-16 05:04:00,
2013-06-16 00:09:00,69.7,66.0,29.83,West,267,7.0,14.0,88,0.00,CLR,CLR,0.00,0.0,WeatherDisplay:10.37,2013-06-16 05:09:00,
2013-06-16 00:14:00,69.5,65.8,29.84,West,264,7.0,14.0,88,0.00,CLR,CLR,0.00,0.0,WeatherDisplay:10.37,2013-06-16 05:14:00,
2013-06-16 00:19:00,69.4,66.0,29.84,West,261,6.0,12.0,89,0.00,CLR,CLR,0.00,0.0,WeatherDisplay:10.37,2013-06-16 05:19:00,
2013-06-16 00:24:00,69.2,65.8,29.84,WSW,256,7.0,10.0,89,0.00,CLR,CLR,0.00,0.0,WeatherDisplay:10.37,2013-06-16 05:24:00,
2013-06-16 00:29:00,69.1,66.0,29.84,WSW,257,7.0,12.0,90,0.00,CLR,CLR,0.00,0.0,WeatherDisplay:10.37,2013-06-16 05:29:00,
2013-06-16 00:34:00,68.9,65.8,29.83,WSW,258,7.0,10.0,90,0.00,CLR,CLR,0.00,0.0,WeatherDisplay:10.37,2013-06-16 05:34:00,
2013-06-16 00:39:00,68.8,65.8,29.84,West,268,5.0,8.0,90,0.00,CLR,CLR,0.00,0.0,WeatherDisplay:10.37,2013-06-16 05:39:00,
2013-06-16 00:44:00,68.8,65.7,29.83,West,266,3.0,7.0,90,0.00,CLR,CLR,0.00,0.0,WeatherDisplay:10.37,2013-06-16 05:44:00,
2013-06-16 00:49:00,68.8,65.7,29.83,West,259,3.0,7.0,90,0.00,CLR,CLR,0.00,0.0,WeatherDisplay:10.37,2013-06-16 05:49:00,
2013-06-16 00:54:00,68.7,65.6,29.83,West,262,3.0,7.0,90,0.00,CLR,CLR,0.00,0.0,WeatherDisplay:10.37,2013-06-16 05:54:00,
2013-06-16 00:59:00,68.7,65.3,29.83,West,261,5.0,8.0,89,0.00,CLR,CLR,0.00,0.0,WeatherDisplay:10.37,2013-06-16 05:59:00,
2013-06-16 01:04:00,68.7,65.3,29.83,West,267,3.0,6.0,89,0.00,CLR,CLR,0.00,0.0,WeatherDisplay:10.37,2013-06-16 06:04:00,
2013-06-16 01:09:00,68.6,65.2,29.83,West,280,1.0,5.0,89,0.00,CLR,CLR,0.00,0.0,WeatherDisplay:10.37,2013-06-16 06:09:00,
2013-06-16 01:14:00,68.4,65.0,29.83,WNW,282,1.0,3.0,89,0.00,CLR,CLR,0.00,0.0,WeatherDisplay:10.37,2013-06-16 06:14:00,
2013-06-16 01:19:00,68.2,65.1,29.83,West,277,1.0,4.0,90,0.00,CLR,CLR,0.00,0.0,WeatherDisplay:10.37,2013-06-16 06:19:00,
2013-06-16 01:24:00,67.9,65.2,29.83,West,277,0.0,3.0,91,0.00,CLR,CLR,0.00,0.0,WeatherDisplay:10.37,2013-06-16 06:24:00,
2013-06-16 01:29:00,67.7,65.0,29.82,West,277,1.0,3.0,91,0.00,CLR,CLR,0.00,0.0,WeatherDisplay:10.37,2013-06-16 06:29:00,
2013-06-16 01:34:00,67.6,64.9,29.82,West,260,2.0,4.0,91,0.00,CLR,CLR,0.00,0.0,WeatherDisplay:10.37,2013-06-16 06:34:00,
2013-06-16 01:39:00,67.6,64.9,29.81,West,260,2.0,4.0,91,0.00,CLR,CLR,0.00,0.0,WeatherDisplay:10.37,2013-06-16 06:39:00,
2013-06-16 01:44:00,67.6,64.9,29.81,West,263,1.0,4.0,91,0.00,CLR,CLR,0.00,0.0,WeatherDisplay:10.37,2013-06-16 06:44:00,
2013-06-16 01:49:00,67.5,64.5,29.80,West,264,1.0,3.0,90,0.00,CLR,CLR,0.00,0.0,WeatherDisplay:10.37,2013-06-16 06:49:00,
2013-06-16 01:54:00,67.4,64.7,29.80,West,265,1.0,3.0,91,0.00,CLR,CLR,0.00,0.0,WeatherDisplay:10.37,2013-06-16 06:54:00,
2013-06-16 01:59:00,67.3,64.6,29.80,West,265,0.0,1.0,91,0.00,CLR,CLR,0.00,0.0,WeatherDisplay:10.37,2013-06-16 06:59:00,
2013-06-16 02:04:00,67.1,64.7,29.80,West,265,0.0,1.0,92,0.00,CLR,CLR,0.00,0.0,WeatherDisplay:10.37,2013-06-16 07:04:00,
2013-06-16 02:09:00,66.9,64.5,29.79,WSW,245,2.0,5.0,92,0.00,CLR,CLR,0.00,0.0,WeatherDisplay:10.37,2013-06-16 07:09:00,
2013-06-16 02:14:00,67.0,64.3,29.78,WSW,247,1.0,4.0,91,0.00,CLR,CLR,0.00,0.0,WeatherDisplay:10.37,2013-06-16 07:14:00,
2013-06-16 02:19:00,67.1,64.4,29.78,WSW,249,0.0,3.0,91,0.00,CLR,CLR,0.00,0.0,WeatherDisplay:10.37,2013-06-16 07:19:00,
2013-06-16 02:24:00,67.0,64.3,29.78,WSW,249,1.0,2.0,91,0.00,CLR,CLR,0.00,0.0,WeatherDisplay:10.37,2013-06-16 07:24:00,
2013-06-16 02:29:00,66.9,64.2,29.78,WSW,249,1.0,3.0,91,0.00,CLR,CLR,0.00,0.0,WeatherDisplay:10.37,2013-06-16 07:29:00,
2013-06-16 02:34:00,66.9,64.2,29.79,WSW,249,2.0,3.0,91,0.00,CLR,CLR,0.00,0.0,WeatherDisplay:10.37,2013-06-16 07:34:00,
2013-06-16 02:39:00,66.8,64.1,29.78,WSW,249,2.0,4.0,91,0.00,CLR,CLR,0.00,0.0,WeatherDisplay:10.37,2013-06-16 07:39:00,
2013-06-16 02:44:00,66.7,64.3,29.78,WSW,249,1.0,4.0,92,0.00,CLR,CLR,0.00,0.0,WeatherDisplay:10.37,2013-06-16 07:44:00,
2013-06-16 02:49:00,66.6,64.2,29.78,WSW,250,1.0,4.0,92,0.00,CLR,CLR,0.00,0.0,WeatherDisplay:10.37,2013-06-16 07:49:00,
2013-06-16 02:54:00,66.4,64.3,29.78,WSW,244,2.0,4.0,93,0.00,CLR,CLR,0.00,0.0,WeatherDisplay:10.37,2013-06-16 07:54:00,
2013-06-16 02:59:00,66.3,63.9,29.78,WSW,242,2.0,4.0,92,0.00,CLR,CLR,0.00,0.0,WeatherDisplay:10.37,2013-06-16 07:59:00,
2013-06-16 03:04:00,66.3,64.2,29.78,WSW,250,1.0,4.0,93,0.00,CLR,CLR,0.00,0.0,WeatherDisplay:10.37,2013-06-16 08:04:00,
2013-06-16 03:09:00,66.3,64.2,29.78,WSW,258,1.0,3.0,93,0.00,CLR,CLR,0.00,0.0,WeatherDisplay:10.37,2013-06-16 08:09:00,
2013-06-16 03:14:00,66.3,63.9,29.78,West,260,0.0,3.0,92,0.00,CLR,CLR,0.00,0.0,WeatherDisplay:10.37,2013-06-16 08:14:00,
2013-06-16 03:19:00,66.3,63.9,29.78,West,265,2.0,3.0,92,0.00,CLR,CLR,0.00,0.0,WeatherDisplay:10.37,2013-06-16 08:19:00,
2013-06-16 03:24:00,66.3,64.2,29.80,West,270,1.0,2.0,93,0.00,CLR,CLR,0.00,0.0,WeatherDisplay:10.37,2013-06-16 08:24:00,
2013-06-16 03:29:00,66.2,64.1,29.80,West,271,0.0,2.0,93,0.00,CLR,CLR,0.00,0.0,WeatherDisplay:10.37,2013-06-16 08:29:00,
2013-06-16 03:34:00,66.1,64.0,29.80,West,268,2.0,3.0,93,0.00,CLR,CLR,0.00,0.0,WeatherDisplay:10.37,2013-06-16 08:34:00,
2013-06-16 03:39:00,65.9,64.1,29.80,West,266,0.0,2.0,94,0.00,CLR,CLR,0.00,0.0,WeatherDisplay:10.37,2013-06-16 08:39:00,
2013-06-16 03:44:00,65.8,63.7,29.80,West,266,1.0,2.0,93,0.00,CLR,CLR,0.00,0.0,WeatherDisplay:10.37,2013-06-16 08:44:00,
2013-06-16 03:49:00,65.8,64.0,29.80,West,266,0.0,1.0,94,0.00,CLR,CLR,0.00,0.0,WeatherDisplay:10.37,2013-06-16 08:49:00,
2013-06-16 03:54:00,65.7,63.9,29.80,West,266,1.0,1.0,94,0.00,CLR,CLR,0.00,0.0,WeatherDisplay:10.37,2013-06-16 08:54:00,
2013-06-16 03:59:00,65.6,63.8,29.80,West,266,0.0,1.0,94,0.00,CLR,CLR,0.00,0.0,WeatherDisplay:10.37,2013-06-16 08:59:00,
2013-06-16 04:04:00,65.5,63.7,29.80,West,266,1.0,2.0,94,0.00,CLR,CLR,0.00,0.0,WeatherDisplay:10.37,2013-06-16 09:04:00,
2013-06-16 04:09:00,65.6,64.1,29.80,West,266,0.0,2.0,95,0.00,CLR,CLR,0.00,0.0,WeatherDisplay:10.37,2013-06-16 09:09:00,
2013-06-16 04:14:00,65.5,64.0,29.80,West,266,0.0,2.0,95,0.00,CLR,CLR,0.00,0.0,WeatherDisplay:10.37,2013-06-16 09:14:00,
2013-06-16 04:19:00,65.5,64.0,29.80,West,266,0.0,2.0,95,0.00,CLR,CLR,0.00,0.0,WeatherDisplay:10.37,2013-06-16 09:19:00,
2013-06-16 04:24:00,65.4,63.9,29.80,West,266,0.0,2.0,95,0.00,CLR,CLR,0.00,0.0,WeatherDisplay:10.37,2013-06-16 09:24:00,
2013-06-16 04:29:00,65.4,63.9,29.81,WSW,243,0.0,3.0,95,0.00,CLR,CLR,0.00,0.0,WeatherDisplay:10.37,2013-06-16 09:29:00,
2013-06-16 04:34:00,65.4,63.9,29.81,WSW,243,3.0,5.0,95,0.00,CLR,CLR,0.00,0.0,WeatherDisplay:10.37,2013-06-16 09:34:00,
2013-06-16 04:39:00,65.6,64.1,29.81,WSW,242,1.0,3.0,95,0.00,CLR,CLR,0.00,0.0,WeatherDisplay:10.37,2013-06-16 09:39:00,
2013-06-16 04:44:00,65.6,64.1,29.81,SW,235,1.0,3.0,95,0.00,CLR,CLR,0.00,0.0,WeatherDisplay:10.37,2013-06-16 09:44:00,
2013-06-16 04:49:00,65.6,64.1,29.81,SW,231,1.0,3.0,95,0.00,CLR,CLR,0.00,0.0,WeatherDisplay:10.37,2013-06-16 09:49:00,
2013-06-16 04:54:00,65.7,64.2,29.82,SW,229,1.0,3.0,95,0.00,CLR,CLR,0.00,0.0,WeatherDisplay:10.37,2013-06-16 09:54:00,
2013-06-16 04:59:00,65.9,64.4,29.82,SW,228,1.0,5.0,95,0.00,CLR,CLR,0.00,0.0,WeatherDisplay:10.37,2013-06-16 09:59:00,
2013-06-16 05:04:00,66.1,64.6,29.82,SW,234,1.0,4.0,95,0.00,CLR,CLR,0.00,0.0,WeatherDisplay:10.37,2013-06-16 10:04:00,
2013-06-16 05:09:00,66.1,64.6,29.82,WSW,244,3.0,5.0,95,0.00,CLR,CLR,0.00,0.0,WeatherDisplay:10.37,2013-06-16 10:09:00,
2013-06-16 05:14:00,66.1,64.3,29.82,WSW,246,2.0,5.0,94,0.00,CLR,CLR,0.00,0.0,WeatherDisplay:10.37,2013-06-16 10:14:00,
2013-06-16 05:19:00,66.1,64.3,29.82,WSW,244,3.0,5.0,94,0.00,CLR,CLR,0.00,0.0,WeatherDisplay:10.37,2013-06-16 10:19:00,
2013-06-16 05:24:00,66.1,64.3,29.82,WSW,243,2.0,5.0,94,0.00,CLR,CLR,0.00,0.0,WeatherDisplay:10.37,2013-06-16 10:24:00,
2013-06-16 05:29:00,66.0,64.3,29.82,WSW,239,5.0,6.0,94,0.00,CLR,CLR,0.00,0.0,WeatherDisplay:10.37,2013-06-16 10:29:00,
2013-06-16 05:34:00,66.0,64.2,29.83,WSW,245,3.0,5.0,94,0.00,CLR,CLR,0.00,0.0,WeatherDisplay:10.37,2013-06-16 10:34:00,
2013-06-16 05:39:00,66.0,64.2,29.83,WSW,252,3.0,6.0,94,0.00,CLR,CLR,0.00,0.0,WeatherDisplay:10.37,2013-06-16 10:39:00,
2013-06-16 05:44:00,66.0,64.2,29.83,WSW,250,6.0,7.0,94,0.00,CLR,CLR,0.00,0.0,WeatherDisplay:10.37,2013-06-16 10:44:00,
2013-06-16 05:49:00,66.2,64.1,29.83,WSW,251,6.0,8.0,93,0.00,CLR,CLR,0.00,0.0,WeatherDisplay:10.37,2013-06-16 10:49:00,
2013-06-16 05:54:00,66.4,64.3,29.83,WSW,254,6.0,8.0,93,0.00,CLR,CLR,0.00,0.0,WeatherDisplay:10.37,2013-06-16 10:54:00,
2013-06-16 05:59:00,66.6,64.5,29.83,WSW,250,5.0,8.0,93,0.00,CLR,CLR,0.00,0.0,WeatherDisplay:10.37,2013-06-16 10:59:00,
2013-06-16 06:04:00,66.7,64.3,29.83,WSW,248,5.0,10.0,92,0.00,CLR,CLR,0.00,0.0,WeatherDisplay:10.37,2013-06-16 11:04:00,
2013-06-16 06:09:00,66.7,64.3,29.83,WSW,251,5.0,10.0,92,0.00,CLR,CLR,0.00,0.0,WeatherDisplay:10.37,2013-06-16 11:09:00,
2013-06-16 06:14:00,66.8,64.4,29.83,WSW,248,6.0,9.0,92,0.00,CLR,CLR,0.00,0.0,WeatherDisplay:10.37,2013-06-16 11:14:00,
2013-06-16 06:19:00,66.8,64.4,29.82,WSW,249,5.0,8.0,92,0.00,CLR,CLR,0.00,0.0,WeatherDisplay:10.37,2013-06-16 11:19:00,
2013-06-16 06:24:00,66.9,64.5,29.82,WSW,251,6.0,12.0,92,0.00,CLR,CLR,0.00,0.0,WeatherDisplay:10.37,2013-06-16 11:24:00,
2013-06-16 06:29:00,67.0,64.6,29.82,WSW,253,5.0,7.0,92,0.00,CLR,CLR,0.00,0.0,WeatherDisplay:10.37,2013-06-16 11:29:00,
2013-06-16 06:34:00,67.2,64.8,29.82,WSW,256,3.0,9.0,92,0.00,CLR,CLR,0.00,0.0,WeatherDisplay:10.37,2013-06-16 11:34:00,
2013-06-16 06:39:00,67.4,65.0,29.82,West,260,3.0,7.0,92,0.00,CLR,CLR,0.00,0.0,WeatherDisplay:10.37,2013-06-16 11:39:00,
2013-06-16 06:44:00,67.6,65.2,29.82,WSW,247,7.0,9.0,92,0.00,CLR,CLR,0.00,0.0,WeatherDisplay:10.37,2013-06-16 11:44:00,
2013-06-16 06:49:00,67.7,65.0,29.82,WSW,251,6.0,8.0,91,0.00,CLR,CLR,0.00,0.0,WeatherDisplay:10.37,2013-06-16 11:49:00,
2013-06-16 06:54:00,67.7,65.0,29.83,WSW,252,6.0,8.0,91,0.00,CLR,CLR,0.00,0.0,WeatherDisplay:10.37,2013-06-16 11:54:00,
2013-06-16 06:59:00,67.9,65.2,29.82,WSW,249,7.0,10.0,91,0.00,CLR,CLR,0.00,0.0,WeatherDisplay:10.37,2013-06-16 11:59:00,
2013-06-16 07:04:00,68.0,65.3,29.83,WSW,251,6.0,10.0,91,0.00,CLR,CLR,0.00,0.0,WeatherDisplay:10.37,2013-06-16 12:04:00,
2013-06-16 07:09:00,68.1,65.4,29.82,WSW,253,6.0,9.0,91,0.00,CLR,CLR,0.00,0.0,WeatherDisplay:10.37,2013-06-16 12:09:00,
2013-06-16 07:14:00,68.3,65.3,29.82,WSW,251,5.0,9.0,90,0.00,CLR,CLR,0.00,0.0,WeatherDisplay:10.37,2013-06-16 12:14:00,
2013-06-16 07:19:00,68.5,65.8,29.82,West,259,5.0,9.0,91,0.00,CLR,CLR,0.00,0.0,WeatherDisplay:10.37,2013-06-16 12:19:00,
2013-06-16 07:24:00,68.6,65.6,29.82,WSW,254,6.0,9.0,90,0.00,CLR,CLR,0.00,0.0,WeatherDisplay:10.37,2013-06-16 12:24:00,
2013-06-16 07:29:00,68.8,65.8,29.82,WSW,247,7.0,12.0,90,0.00,CLR,CLR,0.00,0.0,WeatherDisplay:10.37,2013-06-16 12:29:00,
2013-06-16 07:34:00,69.2,66.1,29.82,WSW,252,7.0,12.0,90,0.00,CLR,CLR,0.00,0.0,WeatherDisplay:10.37,2013-06-16 12:34:00,
2013-06-16 07:39:00,69.5,66.5,29.83,WSW,253,6.0,12.0,90,0.00,CLR,CLR,0.00,0.0,WeatherDisplay:10.37,2013-06-16 12:39:00,
2013-06-16 07:44:00,69.7,66.3,29.83,WSW,256,6.0,12.0,89,0.00,CLR,CLR,0.00,0.0,WeatherDisplay:10.37,2013-06-16 12:44:00,
2013-06-16 07:49:00,69.7,66.3,29.83,WSW,258,6.0,10.0,89,0.00,CLR,CLR,0.00,0.0,WeatherDisplay:10.37,2013-06-16 12:49:00,
2013-06-16 07:54:00,69.7,66.0,29.83,WSW,254,7.0,15.0,88,0.00,CLR,CLR,0.00,0.0,WeatherDisplay:10.37,2013-06-16 12:54:00,
2013-06-16 07:59:00,70.0,66.3,29.83,WSW,254,7.0,13.0,88,0.00,CLR,CLR,0.00,0.0,WeatherDisplay:10.37,2013-06-16 12:59:00,
2013-06-16 08:04:00,70.4,66.7,29.83,WSW,251,5.0,12.0,88,0.00,CLR,CLR,0.00,0.0,WeatherDisplay:10.37,2013-06-16 13:04:00,
2013-06-16 08:09:00,70.8,66.7,29.83,WSW,254,6.0,16.0,87,0.00,CLR,CLR,0.00,0.0,WeatherDisplay:10.37,2013-06-16 13:09:00,
2013-06-16 08:14:00,71.0,66.9,29.84,West,259,7.0,12.0,87,0.00,CLR,CLR,0.00,0.0,WeatherDisplay:10.37,2013-06-16 13:14:00,
2013-06-16 08:19:00,70.7,66.3,29.84,West,265,6.0,12.0,86,0.00,CLR,CLR,0.00,0.0,WeatherDisplay:10.37,2013-06-16 13:19:00,
2013-06-16 08:24:00,70.9,66.8,29.84,West,260,7.0,12.0,87,0.00,CLR,CLR,0.00,0.0,WeatherDisplay:10.37,2013-06-16 13:24:00,
2013-06-16 08:29:00,71.2,66.8,29.83,West,263,6.0,9.0,86,0.00,CLR,CLR,0.00,0.0,WeatherDisplay:10.37,2013-06-16 13:29:00,
2013-06-16 08:34:00,71.4,66.9,29.83,West,262,7.0,10.0,86,0.00,CLR,CLR,0.00,0.0,WeatherDisplay:10.37,2013-06-16 13:34:00,
2013-06-16 08:39:00,71.2,66.8,29.84,West,260,6.0,12.0,86,0.00,CLR,CLR,0.00,0.0,WeatherDisplay:10.37,2013-06-16 13:39:00,
2013-06-16 08:44:00,71.2,66.8,29.84,West,263,6.0,10.0,86,0.00,CLR,CLR,0.00,0.0,WeatherDisplay:10.37,2013-06-16 13:44:00,
2013-06-16 08:49:00,70.9,66.8,29.84,WSW,257,5.0,9.0,87,0.00,CLR,CLR,0.00,0.0,WeatherDisplay:10.37,2013-06-16 13:49:00,
2013-06-16 08:54:00,70.8,66.8,29.84,West,260,5.0,8.0,87,0.00,CLR,CLR,0.00,0.0,WeatherDisplay:10.37,2013-06-16 13:54:00,
2013-06-16 08:59:00,70.8,66.7,29.84,West,260,5.0,8.0,87,0.00,CLR,CLR,0.00,0.0,WeatherDisplay:10.37,2013-06-16 13:59:00,
2013-06-16 09:04:00,70.8,66.7,29.84,WSW,252,5.0,10.0,87,0.00,CLR,CLR,0.00,0.0,WeatherDisplay:10.37,2013-06-16 14:04:00,
2013-06-16 09:09:00,70.7,66.6,29.84,West,259,5.0,7.0,87,0.00,CLR,CLR,0.00,0.0,WeatherDisplay:10.37,2013-06-16 14:09:00,
2013-06-16 09:14:00,70.7,66.6,29.84,West,261,5.0,8.0,87,0.00,CLR,CLR,0.00,0.0,WeatherDisplay:10.37,2013-06-16 14:14:00,
2013-06-16 09:19:00,70.9,66.8,29.84,WSW,252,3.0,7.0,87,0.00,CLR,CLR,0.00,0.0,WeatherDisplay:10.37,2013-06-16 14:19:00,
2013-06-16 09:24:00,71.2,67.2,29.84,WSW,255,6.0,12.0,87,0.00,CLR,CLR,0.00,0.0,WeatherDisplay:10.37,2013-06-16 14:24:00,
2013-06-16 09:29:00,71.2,66.8,29.84,West,262,5.0,12.0,86,0.00,CLR,CLR,0.00,0.0,WeatherDisplay:10.37,2013-06-16 14:29:00,
2013-06-16 09:34:00,71.1,66.7,29.84,WSW,257,5.0,8.0,86,0.00,CLR,CLR,0.00,0.0,WeatherDisplay:10.37,2013-06-16 14:34:00,
2013-06-16 09:39:00,71.1,67.4,29.84,WSW,253,2.0,8.0,88,0.00,CLR,CLR,0.00,0.0,WeatherDisplay:10.37,2013-06-16 14:39:00,
2013-06-16 09:44:00,71.1,67.4,29.84,WSW,255,6.0,12.0,88,0.00,CLR,CLR,0.00,0.0,WeatherDisplay:10.37,2013-06-16 14:44:00,
2013-06-16 09:49:00,71.1,67.0,29.84,West,261,5.0,7.0,87,0.00,CLR,CLR,0.00,0.0,WeatherDisplay:10.37,2013-06-16 14:49:00,
2013-06-16 09:54:00,71.2,67.5,29.84,WSW,253,6.0,8.0,88,0.00,CLR,CLR,0.00,0.0,WeatherDisplay:10.37,2013-06-16 14:54:00,
2013-06-16 09:59:00,71.2,67.1,29.85,WSW,253,7.0,10.0,87,0.00,CLR,CLR,0.00,0.0,WeatherDisplay:10.37,2013-06-16 14:59:00,
2013-06-16 10:04:00,71.1,67.0,29.85,WSW,258,5.0,9.0,87,0.00,CLR,CLR,0.00,0.0,WeatherDisplay:10.37,2013-06-16 15:04:00,
2013-06-16 10:09:00,71.1,67.0,29.85,WSW,257,5.0,10.0,87,0.00,CLR,CLR,0.00,0.0,WeatherDisplay:10.37,2013-06-16 15:09:00,
2013-06-16 10:14:00,71.1,67.1,29.84,WSW,254,5.0,8.0,87,0.00,CLR,CLR,0.00,0.0,WeatherDisplay:10.37,2013-06-16 15:14:00,
2013-06-16 10:19:00,71.1,67.4,29.84,WSW,257,6.0,9.0,88,0.00,CLR,CLR,0.00,0.0,WeatherDisplay:10.37,2013-06-16 15:19:00,
2013-06-16 10:24:00,71.2,67.1,29.84,West,259,5.0,10.0,87,0.00,CLR,CLR,0.00,0.0,WeatherDisplay:10.37,2013-06-16 15:24:00,
2013-06-16 10:29:00,71.4,67.4,29.84,WSW,255,6.0,9.0,87,0.00,CLR,CLR,0.00,0.0,WeatherDisplay:10.37,2013-06-16 15:29:00,
2013-06-16 10:34:00,71.6,67.6,29.85,WSW,249,6.0,10.0,87,0.00,CLR,CLR,0.00,0.0,WeatherDisplay:10.37,2013-06-16 15:34:00,
2013-06-16 10:39:00,71.8,67.4,29.84,WSW,248,6.0,10.0,86,0.00,CLR,CLR,0.00,0.0,WeatherDisplay:10.37,2013-06-16 15:39:00,
2013-06-16 10:44:00,72.0,67.9,29.84,WSW,253,6.0,9.0,87,0.00,CLR,CLR,0.00,0.0,WeatherDisplay:10.37,2013-06-16 15:44:00,
2013-06-16 10:49:00,72.0,67.6,29.85,WSW,257,3.0,9.0,86,0.00,CLR,CLR,0.00,0.0,WeatherDisplay:10.37,2013-06-16 15:49:00,
2013-06-16 10:54:00,72.0,67.6,29.84,WSW,255,3.0,8.0,86,0.00,CLR,CLR,0.00,0.0,WeatherDisplay:10.37,2013-06-16 15:54:00,
2013-06-16 10:59:00,72.2,67.8,29.84,WSW,257,5.0,8.0,86,0.00,CLR,CLR,0.00,0.0,WeatherDisplay:10.37,2013-06-16 15:59:00,
2013-06-16 11:04:00,72.2,67.8,29.84,West,270,2.0,7.0,86,0.00,CLR,CLR,0.00,0.0,WeatherDisplay:10.37,2013-06-16 16:04:00,
2013-06-16 11:09:00,72.4,68.0,29.84,West,277,2.0,6.0,86,0.00,CLR,CLR,0.00,0.0,WeatherDisplay:10.37,2013-06-16 16:09:00,
2013-06-16 11:14:00,72.5,67.7,29.84,WSW,253,3.0,7.0,85,0.00,CLR,CLR,0.00,0.0,WeatherDisplay:10.37,2013-06-16 16:14:00,
2013-06-16 11:19:00,72.7,68.3,29.84,WSW,254,3.0,6.0,86,0.00,CLR,CLR,0.00,0.0,WeatherDisplay:10.37,2013-06-16 16:19:00,
2013-06-16 11:24:00,73.1,68.3,29.85,WSW,254,2.0,6.0,85,0.00,CLR,CLR,0.00,0.0,WeatherDisplay:10.37,2013-06-16 16:24:00,
2013-06-16 11:29:00,73.6,68.4,29.84,West,263,3.0,7.0,84,0.00,CLR,CLR,0.00,0.0,WeatherDisplay:10.37,2013-06-16 16:29:00,
2013-06-16 11:34:00,74.1,69.0,29.84,West,265,3.0,7.0,84,0.00,CLR,CLR,0.00,0.0,WeatherDisplay:10.37,2013-06-16 16:34:00,
2013-06-16 11:39:00,74.4,68.9,29.84,WSW,258,2.0,6.0,83,0.00,CLR,CLR,0.00,0.0,WeatherDisplay:10.37,2013-06-16 16:39:00,
2013-06-16 11:44:00,74.6,69.1,29.84,WSW,257,3.0,5.0,83,0.00,CLR,CLR,0.00,0.0,WeatherDisplay:10.37,2013-06-16 16:44:00,
2013-06-16 11:49:00,75.2,70.0,29.84,WSW,258,5.0,7.0,84,0.00,CLR,CLR,0.00,0.0,WeatherDisplay:10.37,2013-06-16 16:49:00,
2013-06-16 11:54:00,76.0,70.4,29.84,WSW,252,3.0,8.0,83,0.00,CLR,CLR,0.00,0.0,WeatherDisplay:10.37,2013-06-16 16:54:00,
2013-06-16 11:59:00,76.5,70.2,29.84,WSW,238,3.0,8.0,81,0.00,CLR,CLR,0.00,0.0,WeatherDisplay:10.37,2013-06-16 16:59:00,
2013-06-16 12:04:00,76.4,69.8,29.84,WSW,247,6.0,8.0,80,0.00,CLR,CLR,0.00,0.0,WeatherDisplay:10.37,2013-06-16 17:04:00,
2013-06-16 12:09:00,76.0,69.7,29.84,WSW,250,6.0,10.0,81,0.00,CLR,CLR,0.00,0.0,WeatherDisplay:10.37,2013-06-16 17:09:00,
2013-06-16 12:14:00,76.3,70.0,29.84,WSW,254,6.0,7.0,81,0.00,CLR,CLR,0.00,0.0,WeatherDisplay:10.37,2013-06-16 17:14:00,
2013-06-16 12:19:00,76.4,69.8,29.84,WSW,248,3.0,9.0,80,0.00,CLR,CLR,0.00,0.0,WeatherDisplay:10.37,2013-06-16 17:19:00,
2013-06-16 12:24:00,76.9,71.0,29.84,WSW,244,3.0,9.0,82,0.00,CLR,CLR,0.00,0.0,WeatherDisplay:10.37,2013-06-16 17:24:00,
2013-06-16 12:29:00,77.0,70.7,29.84,WSW,249,5.0,8.0,81,0.00,CLR,CLR,0.00,0.0,WeatherDisplay:10.37,2013-06-16 17:29:00,
2013-06-16 12:34:00,77.1,69.7,29.84,WSW,255,5.0,8.0,78,0.00,CLR,CLR,0.00,0.0,WeatherDisplay:10.37,2013-06-16 17:34:00,
2013-06-16 12:39:00,77.3,71.4,29.84,WSW,243,3.0,9.0,82,0.00,CLR,CLR,0.00,0.0,WeatherDisplay:10.37,2013-06-16 17:39:00,
2013-06-16 12:44:00,76.8,69.1,29.84,WSW,247,6.0,8.0,77,0.00,CLR,CLR,0.00,0.0,WeatherDisplay:10.37,2013-06-16 17:44:00,
2013-06-16 12:49:00,77.3,71.4,29.84,WSW,251,3.0,8.0,82,0.00,CLR,CLR,0.00,0.0,WeatherDisplay:10.37,2013-06-16 17:49:00,
2013-06-16 12:54:00,77.8,69.6,29.84,WSW,254,7.0,10.0,76,0.00,CLR,CLR,0.00,0.0,WeatherDisplay:10.37,2013-06-16 17:54:00,
2013-06-16 12:59:00,77.8,69.6,29.84,WSW,253,3.0,10.0,76,0.00,CLR,CLR,0.00,0.0,WeatherDisplay:10.37,2013-06-16 17:59:00,
2013-06-16 13:04:00,77.6,69.1,29.84,WSW,255,5.0,9.0,75,0.00,CLR,CLR,0.00,0.0,WeatherDisplay:10.37,2013-06-16 18:04:00,
2013-06-16 13:09:00,77.2,69.1,29.84,WSW,253,6.0,12.0,76,0.00,CLR,CLR,0.00,0.0,WeatherDisplay:10.37,2013-06-16 18:09:00,
2013-06-16 13:14:00,77.0,70.0,29.84,WSW,256,3.0,9.0,79,0.00,CLR,CLR,0.00,0.0,WeatherDisplay:10.37,2013-06-16 18:14:00,
2013-06-16 13:19:00,78.0,69.5,29.84,West,261,6.0,8.0,75,0.00,CLR,CLR,0.00,0.0,WeatherDisplay:10.37,2013-06-16 18:19:00,
2013-06-16 13:24:00,78.4,69.4,29.84,WSW,250,6.0,8.0,74,0.00,CLR,CLR,0.00,0.0,WeatherDisplay:10.37,2013-06-16 18:24:00,
2013-06-16 13:29:00,78.3,69.7,29.84,WSW,238,3.0,7.0,75,0.00,CLR,CLR,0.00,0.0,WeatherDisplay:10.37,2013-06-16 18:29:00,
2013-06-16 13:34:00,78.9,70.0,29.84,WSW,242,6.0,8.0,74,0.00,CLR,CLR,0.00,0.0,WeatherDisplay:10.37,2013-06-16 18:34:00,
2013-06-16 13:39:00,79.3,70.3,29.83,WSW,251,5.0,10.0,74,0.00,CLR,CLR,0.00,0.0,WeatherDisplay:10.37,2013-06-16 18:39:00,
2013-06-16 13:44:00,79.2,69.3,29.83,WSW,255,6.0,10.0,72,0.00,CLR,CLR,0.00,0.0,WeatherDisplay:10.37,2013-06-16 18:44:00,
2013-06-16 13:49:00,79.2,68.5,29.83,WSW,244,1.0,6.0,70,0.00,CLR,CLR,0.00,0.0,WeatherDisplay:10.37,2013-06-16 18:49:00,
2013-06-16 13:54:00,79.9,69.6,29.83,WSW,242,5.0,10.0,71,0.00,CLR,CLR,0.00,0.0,WeatherDisplay:10.37,2013-06-16 18:54:00,
2013-06-16 13:59:00,79.9,67.5,29.83,West,263,3.0,10.0,66,0.00,CLR,CLR,0.00,0.0,WeatherDisplay:10.37,2013-06-16 18:59:00,
2013-06-16 14:04:00,80.3,69.6,29.83,West,267,3.0,6.0,70,0.00,CLR,CLR,0.00,0.0,WeatherDisplay:10.37,2013-06-16 19:04:00,
2013-06-16 14:09:00,80.7,69.1,29.83,WSW,254,6.0,10.0,68,0.00,CLR,CLR,0.00,0.0,WeatherDisplay:10.37,2013-06-16 19:09:00,
2013-06-16 14:14:00,80.2,69.5,29.83,WSW,249,3.0,8.0,70,0.00,CLR,CLR,0.00,0.0,WeatherDisplay:10.37,2013-06-16 19:14:00,
2013-06-16 14:19:00,79.3,69.9,29.83,WSW,258,2.0,8.0,73,0.00,CLR,CLR,0.00,0.0,WeatherDisplay:10.37,2013-06-16 19:19:00,
2013-06-16 14:24:00,78.7,68.5,29.83,West,259,2.0,6.0,71,0.00,CLR,CLR,0.00,0.0,WeatherDisplay:10.37,2013-06-16 19:24:00,
2013-06-16 14:29:00,78.4,69.0,29.83,West,264,2.0,5.0,73,0.00,CLR,CLR,0.00,0.0,WeatherDisplay:10.37,2013-06-16 19:29:00,
2013-06-16 14:34:00,78.2,68.8,29.83,West,262,2.0,5.0,73,0.00,CLR,CLR,0.00,0.0,WeatherDisplay:10.37,2013-06-16 19:34:00,
2013-06-16 14:39:00,79.0,70.8,29.83,WSW,249,2.0,5.0,76,0.00,CLR,CLR,0.00,0.0,WeatherDisplay:10.37,2013-06-16 19:39:00,
2013-06-16 14:44:00,80.1,70.3,29.83,WSW,249,5.0,12.0,72,0.00,CLR,CLR,0.00,0.0,WeatherDisplay:10.37,2013-06-16 19:44:00,
2013-06-16 14:49:00,80.7,70.9,29.83,WSW,254,3.0,12.0,72,0.00,CLR,CLR,0.00,0.0,WeatherDisplay:10.37,2013-06-16 19:49:00,
2013-06-16 14:54:00,81.3,70.2,29.83,WSW,258,6.0,10.0,69,0.00,CLR,CLR,0.00,0.0,WeatherDisplay:10.37,2013-06-16 19:54:00,
2013-06-16 14:59:00,81.8,72.7,29.83,West,264,2.0,9.0,74,0.00,CLR,CLR,0.00,0.0,WeatherDisplay:10.37,2013-06-16 19:59:00,
2013-06-16 15:04:00,81.9,69.4,29.82,West,263,6.0,8.0,66,0.00,CLR,CLR,0.00,0.0,WeatherDisplay:10.37,2013-06-16 20:04:00,
2013-06-16 15:09:00,80.8,70.5,29.82,West,261,3.0,8.0,71,0.00,CLR,CLR,0.00,0.0,WeatherDisplay:10.37,2013-06-16 20:09:00,
2013-06-16 15:14:00,80.9,70.2,29.83,West,260,5.0,8.0,70,0.00,CLR,CLR,0.00,0.0,WeatherDisplay:10.37,2013-06-16 20:14:00,
2013-06-16 15:19:00,80.6,69.9,29.83,WSW,257,3.0,9.0,70,0.00,CLR,CLR,0.00,0.0,WeatherDisplay:10.37,2013-06-16 20:19:00,
2013-06-16 15:24:00,79.8,70.3,29.83,WSW,248,3.0,8.0,73,0.00,CLR,CLR,0.00,0.0,WeatherDisplay:10.37,2013-06-16 20:24:00,
2013-06-16 15:29:00,79.0,70.0,29.82,WSW,240,3.0,9.0,74,0.00,CLR,CLR,0.00,0.0,WeatherDisplay:10.37,2013-06-16 20:29:00,
2013-06-16 15:34:00,79.4,71.2,29.82,WSW,238,3.0,7.0,76,0.00,CLR,CLR,0.00,0.0,WeatherDisplay:10.37,2013-06-16 20:34:00,
2013-06-16 15:39:00,80.3,71.2,29.82,WSW,244,5.0,9.0,74,0.00,CLR,CLR,0.00,0.0,WeatherDisplay:10.37,2013-06-16 20:39:00,
2013-06-16 15:44:00,80.8,72.5,29.82,WSW,245,2.0,6.0,76,0.00,CLR,CLR,0.00,0.0,WeatherDisplay:10.37,2013-06-16 20:44:00,
2013-06-16 15:49:00,81.4,71.9,29.82,SW,236,2.0,8.0,73,0.00,CLR,CLR,0.00,0.0,WeatherDisplay:10.37,2013-06-16 20:49:00,
2013-06-16 15:54:00,81.2,71.7,29.82,WSW,240,3.0,9.0,73,0.00,CLR,CLR,0.00,0.0,WeatherDisplay:10.37,2013-06-16 20:54:00,
2013-06-16 15:59:00,81.3,71.4,29.82,WSW,249,3.0,8.0,72,0.00,CLR,CLR,0.00,0.0,WeatherDisplay:10.37,2013-06-16 20:59:00,
2013-06-16 16:04:00,80.9,71.0,29.82,WSW,249,5.0,7.0,72,0.00,CLR,CLR,0.00,0.0,WeatherDisplay:10.37,2013-06-16 21:04:00,
2013-06-16 16:09:00,81.5,72.4,29.82,WSW,250,2.0,7.0,74,0.00,CLR,CLR,0.00,0.0,WeatherDisplay:10.37,2013-06-16 21:09:00,
2013-06-16 16:14:00,81.7,71.8,29.82,WSW,250,5.0,12.0,72,0.00,CLR,CLR,0.00,0.0,WeatherDisplay:10.37,2013-06-16 21:14:00,
2013-06-16 16:19:00,81.3,70.6,29.82,WSW,255,6.0,8.0,70,0.00,CLR,CLR,0.00,0.0,WeatherDisplay:10.37,2013-06-16 21:19:00,
2013-06-16 16:24:00,81.4,70.7,29.82,WSW,256,6.0,8.0,70,0.00,CLR,CLR,0.00,0.0,WeatherDisplay:10.37,2013-06-16 21:24:00,
2013-06-16 16:29:00,81.2,70.9,29.82,WSW,255,2.0,9.0,71,0.00,CLR,CLR,0.00,0.0,WeatherDisplay:10.37,2013-06-16 21:29:00,
2013-06-16 16:34:00,81.5,71.2,29.82,WSW,257,2.0,7.0,71,0.00,CLR,CLR,0.00,0.0,WeatherDisplay:10.37,2013-06-16 21:34:00,
2013-06-16 16:39:00,81.7,70.5,29.82,WSW,254,3.0,6.0,69,0.00,CLR,CLR,0.00,0.0,WeatherDisplay:10.37,2013-06-16 21:39:00,
2013-06-16 16:44:00,81.5,70.3,29.82,West,273,2.0,5.0,69,0.00,CLR,CLR,0.00,0.0,WeatherDisplay:10.37,2013-06-16 21:44:00,
2013-06-16 16:49:00,81.6,70.4,29.82,WNW,288,3.0,6.0,69,0.00,CLR,CLR,0.00,0.0,WeatherDisplay:10.37,2013-06-16 21:49:00,
2013-06-16 16:54:00,81.9,70.7,29.82,West,262,5.0,9.0,69,0.00,CLR,CLR,0.00,0.0,WeatherDisplay:10.37,2013-06-16 21:54:00,
2013-06-16 16:59:00,81.4,70.2,29.82,WSW,255,3.0,9.0,69,0.00,CLR,CLR,0.00,0.0,WeatherDisplay:10.37,2013-06-16 21:59:00,
2013-06-16 17:04:00,81.2,70.1,29.82,West,261,2.0,8.0,69,0.00,CLR,CLR,0.00,0.0,WeatherDisplay:10.37,2013-06-16 22:04:00,
2013-06-16 17:09:00,81.7,71.0,29.82,WSW,257,2.0,4.0,70,0.00,CLR,CLR,0.00,0.0,WeatherDisplay:10.37,2013-06-16 22:09:00,
2013-06-16 17:14:00,82.2,70.1,29.81,WSW,248,5.0,7.0,67,0.00,CLR,CLR,0.00,0.0,WeatherDisplay:10.37,2013-06-16 22:14:00,
2013-06-16 17:19:00,82.1,70.5,29.81,WSW,256,2.0,6.0,68,0.00,CLR,CLR,0.00,0.0,WeatherDisplay:10.37,2013-06-16 22:19:00,
2013-06-16 17:24:00,82.1,70.0,29.81,WSW,251,3.0,7.0,67,0.00,CLR,CLR,0.00,0.0,WeatherDisplay:10.37,2013-06-16 22:24:00,
2013-06-16 17:29:00,81.1,69.9,29.81,WSW,255,1.0,6.0,69,0.00,CLR,CLR,0.00,0.0,WeatherDisplay:10.37,2013-06-16 22:29:00,
2013-06-16 17:34:00,80.7,71.2,29.81,WSW,255,1.0,5.0,73,0.00,CLR,CLR,0.00,0.0,WeatherDisplay:10.37,2013-06-16 22:34:00,
2013-06-16 17:39:00,81.4,70.2,29.81,WSW,254,5.0,7.0,69,0.00,CLR,CLR,0.00,0.0,WeatherDisplay:10.37,2013-06-16 22:39:00,
2013-06-16 17:44:00,81.5,70.8,29.81,WSW,251,1.0,7.0,70,0.00,CLR,CLR,0.00,0.0,WeatherDisplay:10.37,2013-06-16 22:44:00,
2013-06-16 17:49:00,81.8,69.8,29.80,WSW,249,3.0,7.0,67,0.00,CLR,CLR,0.00,0.0,WeatherDisplay:10.37,2013-06-16 22:49:00,
2013-06-16 17:54:00,81.8,70.2,29.80,WSW,253,5.0,8.0,68,0.00,CLR,CLR,0.00,0.0,WeatherDisplay:10.37,2013-06-16 22:54:00,
2013-06-16 17:59:00,81.5,69.9,29.80,WSW,256,5.0,8.0,68,0.00,CLR,CLR,0.00,0.0,WeatherDisplay:10.37,2013-06-16 22:59:00,
2013-06-16 18:04:00,81.2,70.1,29.80,WSW,255,3.0,7.0,69,0.00,CLR,CLR,0.00,0.0,WeatherDisplay:10.37,2013-06-16 23:04:00,
2013-06-16 18:09:00,81.1,70.0,29.80,WSW,250,5.0,8.0,69,0.00,CLR,CLR,0.00,0.0,WeatherDisplay:10.37,2013-06-16 23:09:00,
2013-06-16 18:14:00,81.0,69.9,29.80,WSW,247,2.0,7.0,69,0.00,CLR,CLR,0.00,0.0,WeatherDisplay:10.37,2013-06-16 23:14:00,
2013-06-16 18:19:00,81.1,70.8,29.80,WSW,241,2.0,6.0,71,0.00,CLR,CLR,0.00,0.0,WeatherDisplay:10.37,2013-06-16 23:19:00,
2013-06-16 18:24:00,81.3,70.1,29.80,WSW,245,3.0,7.0,69,0.00,CLR,CLR,0.00,0.0,WeatherDisplay:10.37,2013-06-16 23:24:00,
2013-06-16 18:29:00,81.2,69.6,29.79,WSW,251,5.0,6.0,68,0.00,CLR,CLR,0.00,0.0,WeatherDisplay:10.37,2013-06-16 23:29:00,
2013-06-16 18:34:00,81.0,69.8,29.80,WSW,250,5.0,8.0,69,0.00,CLR,CLR,0.00,0.0,WeatherDisplay:10.37,2013-06-16 23:34:00,
2013-06-16 18:39:00,80.8,69.7,29.79,WSW,248,5.0,7.0,69,0.00,CLR,CLR,0.00,0.0,WeatherDisplay:10.37,2013-06-16 23:39:00,
2013-06-16 18:44:00,80.5,69.0,29.79,WSW,257,6.0,9.0,68,0.00,CLR,CLR,0.00,0.0,WeatherDisplay:10.37,2013-06-16 23:44:00,
2013-06-16 18:49:00,80.3,68.7,29.79,West,261,6.0,10.0,68,0.00,CLR,CLR,0.00,0.0,WeatherDisplay:10.37,2013-06-16 23:49:00,
2013-06-16 18:54:00,80.2,70.4,29.79,WSW,253,2.0,6.0,72,0.00,CLR,CLR,0.00,0.0,WeatherDisplay:10.37,2013-06-16 23:54:00,
2013-06-16 18:59:00,80.2,69.1,29.79,WSW,244,5.0,7.0,69,0.00,CLR,CLR,0.00,0.0,WeatherDisplay:10.37,2013-06-16 23:59:00,
2013-06-16 19:04:00,80.1,68.6,29.80,WSW,254,2.0,6.0,68,0.00,CLR,CLR,0.00,0.0,WeatherDisplay:10.37,2013-06-17 00:04:00,
2013-06-16 19:09:00,80.1,69.0,29.79,WSW,254,3.0,6.0,69,0.00,CLR,CLR,0.00,0.0,WeatherDisplay:10.37,2013-06-17 00:09:00,
2013-06-16 19:14:00,79.8,69.6,29.79,WSW,251,3.0,6.0,71,0.00,CLR,CLR,0.00,0.0,WeatherDisplay:10.37,2013-06-17 00:14:00,
2013-06-16 19:19:00,79.6,69.8,29.79,WSW,246,2.0,6.0,72,0.00,CLR,CLR,0.00,0.0,WeatherDisplay:10.37,2013-06-17 00:19:00,
2013-06-16 19:24:00,79.3,69.1,29.79,WSW,248,3.0,6.0,71,0.00,CLR,CLR,0.00,0.0,WeatherDisplay:10.37,2013-06-17 00:24:00,
2013-06-16 19:29:00,79.3,69.1,29.80,WSW,254,2.0,4.0,71,0.00,CLR,CLR,0.00,0.0,WeatherDisplay:10.37,2013-06-17 00:29:00,
2013-06-16 19:34:00,79.1,68.9,29.80,WSW,251,3.0,7.0,71,0.00,CLR,CLR,0.00,0.0,WeatherDisplay:10.37,2013-06-17 00:34:00,
2013-06-16 19:39:00,78.8,69.0,29.80,WSW,247,3.0,5.0,72,0.00,CLR,CLR,0.00,0.0,WeatherDisplay:10.37,2013-06-17 00:39:00,
2013-06-16 19:44:00,78.3,69.4,29.80,WSW,250,1.0,5.0,74,0.00,CLR,CLR,0.00,0.0,WeatherDisplay:10.37,2013-06-17 00:44:00,
2013-06-16 19:49:00,77.8,69.2,29.79,WSW,249,2.0,3.0,75,0.00,CLR,CLR,0.00,0.0,WeatherDisplay:10.37,2013-06-17 00:49:00,
2013-06-16 19:54:00,77.3,69.1,29.79,WSW,246,0.0,2.0,76,0.00,CLR,CLR,0.00,0.0,WeatherDisplay:10.37,2013-06-17 00:54:00,
2013-06-16 19:59:00,76.8,69.4,29.80,WSW,244,0.0,1.0,78,0.00,CLR,CLR,0.00,0.0,WeatherDisplay:10.37,2013-06-17 00:59:00,
2013-06-16 20:04:00,76.4,69.1,29.80,WSW,244,0.0,0.0,78,0.00,CLR,CLR,0.00,0.0,WeatherDisplay:10.37,2013-06-17 01:04:00,
2013-06-16 20:09:00,76.0,69.0,29.80,WSW,244,0.0,0.0,79,0.00,CLR,CLR,0.00,0.0,WeatherDisplay:10.37,2013-06-17 01:09:00,
2013-06-16 20:14:00,75.5,68.9,29.80,WSW,244,0.0,1.0,80,0.00,CLR,CLR,0.00,0.0,WeatherDisplay:10.37,2013-06-17 01:14:00,
2013-06-16 20:19:00,75.2,68.6,29.79,WSW,244,0.0,0.0,80,0.00,CLR,CLR,0.00,0.0,WeatherDisplay:10.37,2013-06-17 01:19:00,
2013-06-16 20:24:00,74.8,68.2,29.79,WSW,244,0.0,1.0,80,0.00,CLR,CLR,0.00,0.0,WeatherDisplay:10.37,2013-06-17 01:24:00,
2013-06-16 20:29:00,74.6,68.4,29.80,WSW,244,0.0,1.0,81,0.00,CLR,CLR,0.00,0.0,WeatherDisplay:10.37,2013-06-17 01:29:00,
2013-06-16 20:34:00,74.2,68.4,29.80,WSW,244,0.0,1.0,82,0.00,CLR,CLR,0.00,0.0,WeatherDisplay:10.37,2013-06-17 01:34:00,
2013-06-16 20:39:00,73.9,68.4,29.80,WSW,244,0.0,0.0,83,0.00,CLR,CLR,0.00,0.0,WeatherDisplay:10.37,2013-06-17 01:39:00,
2013-06-16 20:44:00,73.7,68.2,29.80,WSW,244,0.0,0.0,83,0.00,CLR,CLR,0.00,0.0,WeatherDisplay:10.37,2013-06-17 01:44:00,
2013-06-16 20:49:00,73.4,68.3,29.80,WSW,244,0.0,0.0,84,0.00,CLR,CLR,0.00,0.0,WeatherDisplay:10.37,2013-06-17 01:49:00,
2013-06-16 20:54:00,73.1,68.0,29.80,WSW,244,0.0,0.0,84,0.00,CLR,CLR,0.00,0.0,WeatherDisplay:10.37,2013-06-17 01:54:00,
2013-06-16 20:59:00,72.8,68.0,29.80,WSW,244,0.0,0.0,85,0.00,CLR,CLR,0.00,0.0,WeatherDisplay:10.37,2013-06-17 01:59:00,
2013-06-16 21:04:00,72.5,68.1,29.80,WSW,244,0.0,0.0,86,0.00,CLR,CLR,0.00,0.0,WeatherDisplay:10.37,2013-06-17 02:04:00,
2013-06-16 21:09:00,72.2,67.8,29.81,WSW,244,0.0,0.0,86,0.00,CLR,CLR,0.00,0.0,WeatherDisplay:10.37,2013-06-17 02:09:00,
2013-06-16 21:14:00,72.0,67.9,29.81,WSW,244,0.0,0.0,87,0.00,CLR,CLR,0.00,0.0,WeatherDisplay:10.37,2013-06-17 02:14:00,
2013-06-16 21:19:00,71.7,67.6,29.80,WSW,244,0.0,0.0,87,0.00,CLR,CLR,0.00,0.0,WeatherDisplay:10.37,2013-06-17 02:19:00,
2013-06-16 21:24:00,71.4,67.4,29.81,WSW,244,0.0,0.0,87,0.00,CLR,CLR,0.00,0.0,WeatherDisplay:10.37,2013-06-17 02:24:00,
2013-06-16 21:29:00,71.1,67.7,29.80,WSW,244,0.0,0.0,89,0.00,CLR,CLR,0.00,0.0,WeatherDisplay:10.37,2013-06-17 02:29:00,
2013-06-16 21:34:00,70.8,67.4,29.81,WSW,244,0.0,0.0,89,0.00,CLR,CLR,0.00,0.0,WeatherDisplay:10.37,2013-06-17 02:34:00,
2013-06-16 21:39:00,70.5,67.4,29.81,WSW,244,0.0,0.0,90,0.00,CLR,CLR,0.00,0.0,WeatherDisplay:10.37,2013-06-17 02:39:00,
2013-06-16 21:44:00,70.3,67.2,29.81,WSW,244,0.0,0.0,90,0.00,CLR,CLR,0.00,0.0,WeatherDisplay:10.37,2013-06-17 02:44:00,
2013-06-16 21:49:00,70.0,67.3,29.81,WSW,244,0.0,0.0,91,0.00,CLR,CLR,0.00,0.0,WeatherDisplay:10.37,2013-06-17 02:49:00,
2013-06-16 21:54:00,69.8,67.1,29.81,WSW,244,0.0,0.0,91,0.00,CLR,CLR,0.00,0.0,WeatherDisplay:10.37,2013-06-17 02:54:00,
2013-06-16 21:59:00,69.5,66.8,29.81,WSW,244,0.0,0.0,91,0.00,CLR,CLR,0.00,0.0,WeatherDisplay:10.37,2013-06-17 02:59:00,
2013-06-16 22:04:00,69.2,66.5,29.81,WSW,244,0.0,0.0,91,0.00,CLR,CLR,0.00,0.0,WeatherDisplay:10.37,2013-06-17 03:04:00,
2013-06-16 22:09:00,68.8,66.1,29.81,WSW,244,0.0,0.0,91,0.00,CLR,CLR,0.00,0.0,WeatherDisplay:10.37,2013-06-17 03:09:00,
2013-06-16 22:14:00,68.5,66.1,29.82,WSW,244,0.0,0.0,92,0.00,CLR,CLR,0.00,0.0,WeatherDisplay:10.37,2013-06-17 03:14:00,
2013-06-16 22:19:00,68.3,66.2,29.82,WSW,244,0.0,0.0,93,0.00,CLR,CLR,0.00,0.0,WeatherDisplay:10.37,2013-06-17 03:19:00,
2013-06-16 22:24:00,68.2,66.4,29.82,WSW,244,0.0,0.0,94,0.00,CLR,CLR,0.00,0.0,WeatherDisplay:10.37,2013-06-17 03:24:00,
2013-06-16 22:29:00,68.3,66.5,29.82,WSW,244,0.0,1.0,94,0.00,CLR,CLR,0.00,0.0,WeatherDisplay:10.37,2013-06-17 03:29:00,
2013-06-16 22:34:00,68.1,66.3,29.83,WSW,244,0.0,0.0,94,0.00,CLR,CLR,0.00,0.0,WeatherDisplay:10.37,2013-06-17 03:34:00,
2013-06-16 22:39:00,67.9,66.1,29.83,WSW,244,0.0,0.0,94,0.00,CLR,CLR,0.00,0.0,WeatherDisplay:10.37,2013-06-17 03:39:00,
2013-06-16 22:44:00,67.7,65.9,29.82,WSW,244,0.0,0.0,94,0.00,CLR,CLR,0.00,0.0,WeatherDisplay:10.37,2013-06-17 03:44:00,
2013-06-16 22:49:00,67.5,65.7,29.82,WSW,244,0.0,0.0,94,0.00,CLR,CLR,0.00,0.0,WeatherDisplay:10.37,2013-06-17 03:49:00,
2013-06-16 22:54:00,67.3,65.5,29.82,WSW,244,0.0,0.0,94,0.00,CLR,CLR,0.00,0.0,WeatherDisplay:10.37,2013-06-17 03:54:00,
2013-06-16 22:59:00,67.3,65.5,29.82,WSW,244,0.0,1.0,94,0.00,CLR,CLR,0.00,0.0,WeatherDisplay:10.37,2013-06-17 03:59:00,
2013-06-16 23:04:00,67.2,65.8,29.83,WSW,244,1.0,2.0,95,0.00,CLR,CLR,0.00,0.0,WeatherDisplay:10.37,2013-06-17 04:04:00,
2013-06-16 23:09:00,67.4,65.9,29.83,WSW,244,1.0,3.0,95,0.00,CLR,CLR,0.00,0.0,WeatherDisplay:10.37,2013-06-17 04:09:00,
2013-06-16 23:14:00,67.7,66.2,29.83,WSW,244,2.0,4.0,95,0.00,CLR,CLR,0.00,0.0,WeatherDisplay:10.37,2013-06-17 04:14:00,
2013-06-16 23:19:00,67.9,66.1,29.83,WSW,244,1.0,4.0,94,0.00,CLR,CLR,0.00,0.0,WeatherDisplay:10.37,2013-06-17 04:19:00,
2013-06-16 23:24:00,67.9,66.1,29.84,WSW,245,1.0,3.0,94,0.00,CLR,CLR,0.00,0.0,WeatherDisplay:10.37,2013-06-17 04:24:00,
2013-06-16 23:29:00,68.0,66.2,29.84,WSW,245,1.0,2.0,94,0.00,CLR,CLR,0.00,0.0,WeatherDisplay:10.37,2013-06-17 04:29:00,
2013-06-16 23:34:00,68.0,66.2,29.83,WSW,245,1.0,2.0,94,0.00,CLR,CLR,0.00,0.0,WeatherDisplay:10.37,2013-06-17 04:34:00,
2013-06-16 23:39:00,68.1,66.3,29.83,WSW,245,1.0,2.0,94,0.00,CLR,CLR,0.00,0.0,WeatherDisplay:10.37,2013-06-17 04:39:00,
2013-06-16 23:44:00,68.1,66.3,29.83,WSW,245,1.0,3.0,94,0.00,CLR,CLR,0.00,0.0,WeatherDisplay:10.37,2013-06-17 04:44:00,
2013-06-16 23:49:00,68.1,66.3,29.83,WSW,245,1.0,2.0,94,0.00,CLR,CLR,0.00,0.0,WeatherDisplay:10.37,2013-06-17 04:49:00,
2013-06-16 23:54:00,68.0,65.9,29.83,WSW,245,1.0,2.0,93,0.00,CLR,CLR,0.00,0.0,WeatherDisplay:10.37,2013-06-17 04:54:00,
2013-06-16 23:59:00,67.9,65.8,29.83,WSW,245,0.0,2.0,93,0.00,CLR,CLR,0.00,0.0,WeatherDisplay:10.37,2013-06-17 04:59:00,